createdAt,value
2018-09-02T00:01:17.004Z,1.50
2018-09-02T00:03:45.347Z,1.60
2018-09-02T00:06:13.704Z,1.70
2018-09-02T00:08:42.015Z,1.60
2018-09-02T00:11:10.331Z,1.40
2018-09-02T00:13:38.620Z,1.70
2018-09-02T00:16:06.964Z,1.50
2018-09-02T00:18:35.325Z,1.50
2018-09-02T00:21:03.756Z,1.50
2018-09-02T00:23:32.010Z,1.47
2018-09-02T00:26:00.358Z,1.50
2018-09-02T00:28:28.682Z,1.60
2018-09-02T00:30:57.018Z,1.60
2018-09-02T00:33:25.420Z,1.47
2018-09-02T00:35:53.695Z,1.50
2018-09-02T00:38:22.016Z,1.33
2018-09-02T00:40:50.340Z,1.60
2018-09-02T00:43:18.633Z,1.53
2018-09-02T00:45:46.928Z,1.40
2018-09-02T00:48:15.265Z,1.67
2018-09-02T00:50:43.548Z,1.53
2018-09-02T00:53:11.913Z,1.57
2018-09-02T00:55:40.202Z,1.40
2018-09-02T00:58:08.616Z,1.43
2018-09-02T01:00:36.946Z,1.70
2018-09-02T01:03:05.339Z,1.20
2018-09-02T01:05:33.672Z,1.50
2018-09-02T01:08:02.051Z,1.60
2018-09-02T01:10:30.324Z,1.50
2018-09-02T01:12:58.661Z,1.40
2018-09-02T01:15:26.974Z,1.70
2018-09-02T01:17:55.348Z,1.57
2018-09-02T01:20:23.633Z,1.57
2018-09-02T01:22:52.016Z,1.50
2018-09-02T01:25:20.341Z,1.30
2018-09-02T01:27:48.633Z,1.50
2018-09-02T01:30:16.975Z,1.67
2018-09-02T01:32:45.316Z,1.70
2018-09-02T01:35:18.983Z,1.40
2018-09-02T01:37:47.273Z,1.40
2018-09-02T01:40:15.596Z,1.70
2018-09-02T01:42:43.898Z,1.70
2018-09-02T01:45:12.205Z,1.60
2018-09-02T01:47:40.473Z,1.30
2018-09-02T01:50:08.793Z,1.50
2018-09-02T01:52:37.138Z,1.57
2018-09-02T01:55:05.596Z,1.47
2018-09-02T01:57:33.993Z,1.30
2018-09-02T02:00:02.248Z,1.40
2018-09-02T02:02:30.573Z,1.60
2018-09-02T02:04:58.862Z,1.27
2018-09-02T02:07:27.211Z,1.40
2018-09-02T02:09:55.549Z,1.23
2018-09-02T02:12:23.823Z,1.50
2018-09-02T02:14:52.161Z,1.40
2018-09-02T02:17:20.438Z,1.40
2018-09-02T02:19:48.749Z,1.80
2018-09-02T02:22:17.070Z,1.43
2018-09-02T02:24:45.344Z,1.07
2018-09-02T02:27:13.657Z,1.23
2018-09-02T02:29:41.933Z,1.47
2018-09-02T02:32:10.248Z,1.33
2018-09-02T02:34:38.613Z,1.40
2018-09-02T02:37:06.921Z,1.40
2018-09-02T02:39:35.260Z,1.50
2018-09-02T02:42:03.480Z,1.30
2018-09-02T02:44:31.765Z,1.73
2018-09-02T02:47:00.065Z,1.50
2018-09-02T02:49:28.382Z,1.60
2018-09-02T02:51:56.717Z,1.30
2018-09-02T02:56:59.706Z,1.10
2018-09-02T02:59:27.998Z,1.30
2018-09-02T03:01:56.754Z,1.50
2018-09-02T03:04:25.082Z,1.63
2018-09-02T03:06:53.418Z,1.30
2018-09-02T03:09:21.718Z,1.20
2018-09-02T03:11:50.077Z,1.63
2018-09-02T03:14:18.395Z,1.40
2018-09-02T03:16:46.660Z,1.23
2018-09-02T03:19:14.964Z,1.57
2018-09-02T03:21:43.314Z,1.40
2018-09-02T03:24:11.613Z,1.40
2018-09-02T03:26:39.930Z,1.50
2018-09-02T03:29:08.250Z,1.20
2018-09-02T03:31:36.585Z,1.30
2018-09-02T03:34:04.956Z,1.30
2018-09-02T03:36:33.301Z,1.30
2018-09-02T03:39:01.611Z,1.27
2018-09-02T03:41:29.945Z,1.20
2018-09-02T03:43:58.257Z,1.40
2018-09-02T03:46:26.565Z,1.33
2018-09-02T03:48:54.889Z,1.37
2018-09-02T03:51:23.123Z,1.20
2018-09-02T03:53:51.336Z,1.33
2018-09-02T03:56:19.589Z,1.30
2018-09-02T03:58:47.879Z,1.33
2018-09-02T04:01:16.314Z,1.27
2018-09-02T04:03:44.633Z,1.40
2018-09-02T04:06:12.935Z,1.40
2018-09-02T04:08:41.281Z,1.30
2018-09-02T04:11:09.642Z,1.57
2018-09-02T04:13:37.945Z,1.20
2018-09-02T04:16:06.261Z,1.30
2018-09-02T04:18:34.553Z,1.40
2018-09-02T04:21:02.886Z,1.40
2018-09-02T04:23:31.193Z,1.40
2018-09-02T04:25:59.473Z,1.37
2018-09-02T04:28:27.748Z,1.30
2018-09-02T04:30:56.150Z,1.50
2018-09-02T04:33:24.409Z,1.30
2018-09-02T04:35:52.761Z,1.47
2018-09-02T04:38:21.124Z,1.30
2018-09-02T04:40:49.441Z,1.33
2018-09-02T04:43:17.763Z,1.43
2018-09-02T04:45:46.061Z,1.20
2018-09-02T04:48:14.370Z,1.37
2018-09-02T04:50:42.625Z,1.23
2018-09-02T04:53:10.923Z,1.20
2018-09-02T04:55:39.307Z,1.53
2018-09-02T04:58:07.620Z,1.53
2018-09-02T05:00:35.926Z,1.27
2018-09-02T05:03:04.286Z,1.30
2018-09-02T05:05:32.571Z,1.30
2018-09-02T05:08:00.909Z,1.40
2018-09-02T05:10:29.185Z,1.30
2018-09-02T05:12:57.465Z,1.30
2018-09-02T05:15:25.743Z,1.47
2018-09-02T05:17:54.097Z,1.37
2018-09-02T05:20:22.399Z,1.40
2018-09-02T05:22:50.685Z,1.37
2018-09-02T05:25:18.991Z,1.43
2018-09-02T05:27:47.322Z,1.60
2018-09-02T05:30:15.633Z,1.80
2018-09-02T05:32:43.941Z,1.50
2018-09-02T05:35:12.241Z,1.30
2018-09-02T05:37:40.522Z,1.70
2018-09-02T05:40:08.800Z,1.40
2018-09-02T05:42:37.053Z,1.67
2018-09-02T05:45:06.236Z,1.50
2018-09-02T05:47:34.500Z,1.50
2018-09-02T05:50:02.722Z,1.47
2018-09-02T05:52:31.106Z,1.83
2018-09-02T05:54:59.397Z,1.43
2018-09-02T05:57:27.800Z,1.20
2018-09-02T05:59:56.115Z,1.30
2018-09-02T06:02:24.411Z,1.10
2018-09-02T06:04:52.757Z,1.30
2018-09-02T06:07:21.040Z,1.57
2018-09-02T06:09:49.353Z,1.70
2018-09-02T06:12:17.672Z,1.30
2018-09-02T06:14:45.965Z,1.53
2018-09-02T06:17:14.294Z,1.40
2018-09-02T06:19:42.577Z,1.70
2018-09-02T06:22:10.904Z,1.60
2018-09-02T06:24:39.202Z,1.83
2018-09-02T06:27:07.506Z,1.47
2018-09-02T06:29:35.821Z,1.53
2018-09-02T06:32:04.138Z,1.63
2018-09-02T06:34:32.499Z,2.00
2018-09-02T06:37:00.770Z,2.47
2018-09-02T06:39:29.156Z,1.50
2018-09-02T06:41:57.408Z,1.70
2018-09-02T06:44:25.695Z,1.97
2018-09-02T06:46:54.084Z,1.80
2018-09-02T06:49:22.389Z,1.70
2018-09-02T06:51:50.721Z,1.83
2018-09-02T06:54:19.058Z,1.60
2018-09-02T06:56:47.312Z,1.70
2018-09-02T06:59:15.634Z,1.53
2018-09-02T07:01:43.892Z,1.63
2018-09-02T07:04:12.165Z,1.77
2018-09-02T07:06:40.527Z,1.60
2018-09-02T07:09:08.770Z,1.80
2018-09-02T07:11:37.061Z,1.90
2018-09-02T07:14:05.325Z,1.70
2018-09-02T07:16:33.644Z,2.10
2018-09-02T07:19:01.929Z,1.47
2018-09-02T07:21:30.201Z,1.50
2018-09-02T07:23:58.561Z,1.60
2018-09-02T07:26:26.890Z,1.50
2018-09-02T07:28:55.213Z,1.67
2018-09-02T07:31:23.583Z,1.80
2018-09-02T07:33:51.891Z,1.73
2018-09-02T07:36:20.148Z,1.70
2018-09-02T07:38:48.441Z,1.77
2018-09-02T07:41:16.765Z,1.87
2018-09-02T07:43:45.104Z,1.70
2018-09-02T07:46:13.342Z,1.63
2018-09-02T07:48:41.653Z,1.67
2018-09-02T07:51:09.924Z,1.90
2018-09-02T07:53:38.180Z,1.83
2018-09-02T07:56:06.481Z,1.70
2018-09-02T07:58:34.791Z,1.50
2018-09-02T08:01:03.049Z,1.60
2018-09-02T08:03:31.325Z,1.67
2018-09-02T08:05:59.634Z,1.60
2018-09-02T08:08:27.902Z,1.60
2018-09-02T08:10:56.248Z,1.80
2018-09-02T08:13:24.583Z,1.57
2018-09-02T08:15:52.877Z,1.67
2018-09-02T08:18:21.169Z,1.60
2018-09-02T08:20:49.493Z,1.73
2018-09-02T08:23:17.744Z,1.70
2018-09-02T08:25:45.984Z,1.70
2018-09-02T08:28:14.241Z,2.00
2018-09-02T08:30:42.493Z,1.57
2018-09-02T08:33:10.780Z,1.60
2018-09-02T08:35:39.057Z,1.70
2018-09-02T08:38:07.365Z,1.43
2018-09-02T08:40:35.629Z,1.60
2018-09-02T08:43:03.970Z,1.60
2018-09-02T08:45:32.289Z,1.60
2018-09-02T08:48:00.653Z,2.07
2018-09-02T08:50:28.946Z,1.77
2018-09-02T08:52:57.254Z,1.60
2018-09-02T08:55:25.549Z,1.40
2018-09-02T08:57:54.155Z,1.40
2018-09-02T09:00:24.969Z,1.67
2018-09-02T09:02:53.233Z,1.67
2018-09-02T09:05:21.648Z,1.40
2018-09-02T09:07:50.128Z,1.50
2018-09-02T09:10:18.196Z,1.70
2018-09-02T09:12:46.545Z,1.37
2018-09-02T09:15:14.834Z,1.80
2018-09-02T09:17:43.144Z,1.57
2018-09-02T09:20:11.474Z,1.57
2018-09-02T09:22:40.013Z,1.50
2018-09-02T09:25:09.581Z,1.40
2018-09-02T09:27:38.143Z,1.60
2018-09-02T09:30:06.783Z,1.73
2018-09-02T09:32:35.234Z,1.57
2018-09-02T09:35:03.526Z,1.80
2018-09-02T09:37:31.850Z,1.70
2018-09-02T09:40:00.242Z,1.67
2018-09-02T09:42:28.574Z,1.70
2018-09-02T09:44:56.877Z,1.47
2018-09-02T09:47:25.181Z,1.40
2018-09-02T09:49:53.485Z,1.50
2018-09-02T09:52:21.876Z,1.30
2018-09-02T09:54:50.209Z,1.40
2018-09-02T09:57:18.581Z,1.47
2018-09-02T09:59:46.873Z,1.60
2018-09-02T10:02:15.122Z,1.30
2018-09-02T10:04:43.428Z,1.70
2018-09-02T10:07:11.796Z,1.60
2018-09-02T10:09:40.169Z,1.40
2018-09-02T10:12:08.433Z,1.67
2018-09-02T10:14:36.777Z,1.57
2018-09-02T10:17:05.134Z,1.50
2018-09-02T10:19:33.541Z,1.50
2018-09-02T10:22:01.877Z,1.60
2018-09-02T10:24:30.369Z,1.33
2018-09-02T10:26:58.634Z,1.33
2018-09-02T10:29:26.977Z,1.60
2018-09-02T10:31:55.270Z,1.80
2018-09-02T10:34:23.613Z,1.80
2018-09-02T10:36:52.983Z,1.40
2018-09-02T10:39:22.957Z,1.40
2018-09-02T10:41:51.221Z,1.20
2018-09-02T10:44:19.509Z,1.70
2018-09-02T10:46:47.797Z,1.50
2018-09-02T10:49:16.176Z,1.63
2018-09-02T10:51:44.480Z,1.30
2018-09-02T10:54:12.827Z,1.90
2018-09-02T10:56:41.188Z,1.40
2018-09-02T10:59:09.456Z,1.40
2018-09-02T11:01:37.725Z,1.60
2018-09-02T11:04:06.298Z,1.40
2018-09-02T11:06:34.656Z,1.60
2018-09-02T11:09:02.999Z,1.77
2018-09-02T11:11:31.497Z,2.03
2018-09-02T11:14:00.027Z,2.50
2018-09-02T11:16:28.265Z,2.03
2018-09-02T11:18:56.604Z,2.40
2018-09-02T11:21:25.776Z,2.20
2018-09-02T11:23:54.163Z,2.43
2018-09-02T11:26:22.767Z,3.10
2018-09-02T11:28:51.094Z,2.83
2018-09-02T11:31:19.387Z,3.20
2018-09-02T11:33:47.713Z,2.80
2018-09-02T11:36:16.024Z,2.80
2018-09-02T11:38:44.425Z,3.10
2018-09-02T11:41:12.757Z,2.60
2018-09-02T11:43:41.048Z,2.57
2018-09-02T11:46:09.332Z,2.40
2018-09-02T11:48:37.684Z,2.30
2018-09-02T11:51:06.133Z,2.83
2018-09-02T11:53:34.434Z,2.50
2018-09-02T11:56:02.730Z,2.87
2018-09-02T11:58:31.049Z,2.73
2018-09-02T12:00:59.429Z,2.60
2018-09-02T12:03:27.829Z,2.23
2018-09-02T12:05:56.187Z,2.03
2018-09-02T12:08:24.534Z,2.10
2018-09-02T12:10:52.893Z,1.67
2018-09-02T12:13:21.158Z,2.07
2018-09-02T12:15:49.489Z,2.27
2018-09-02T12:18:17.873Z,2.00
2018-09-02T12:20:46.185Z,2.67
2018-09-02T12:23:14.525Z,2.97
2018-09-02T12:25:42.860Z,2.63
2018-09-02T12:28:11.236Z,2.90
2018-09-02T12:30:39.560Z,3.30
2018-09-02T12:33:07.877Z,8.57
2018-09-02T12:35:36.244Z,8.27
2018-09-02T12:38:04.525Z,3.60
2018-09-02T12:40:32.844Z,3.50
2018-09-02T12:43:01.110Z,3.10
2018-09-02T12:45:29.415Z,2.50
2018-09-02T12:47:57.782Z,2.10
2018-09-02T12:50:26.006Z,2.30
2018-09-02T12:52:54.289Z,2.00
2018-09-02T12:55:22.750Z,1.80
2018-09-02T12:57:51.004Z,1.40
2018-09-02T13:00:19.659Z,1.70
2018-09-02T13:02:48.013Z,1.60
2018-09-02T13:05:16.316Z,1.40
2018-09-02T13:07:44.649Z,1.60
2018-09-02T13:10:12.916Z,1.40
2018-09-02T13:12:41.289Z,1.50
2018-09-02T13:15:09.681Z,1.40
2018-09-02T13:17:37.957Z,1.00
2018-09-02T13:20:06.426Z,1.10
2018-09-02T13:22:34.653Z,1.33
2018-09-02T13:25:02.976Z,1.27
2018-09-02T13:27:31.386Z,1.50
2018-09-02T13:29:59.693Z,2.10
2018-09-02T13:32:28.013Z,1.30
2018-09-02T13:34:56.438Z,1.20
2018-09-02T13:37:24.725Z,1.23
2018-09-02T13:39:53.012Z,1.30
2018-09-02T13:42:21.319Z,1.20
2018-09-02T13:44:49.573Z,1.30
2018-09-02T13:47:17.889Z,1.20
2018-09-02T13:49:46.149Z,1.20
2018-09-02T13:52:14.582Z,1.60
2018-09-02T13:54:42.921Z,1.70
2018-09-02T13:57:11.237Z,1.57
2018-09-02T13:59:39.628Z,1.90
2018-09-02T14:02:07.946Z,1.87
2018-09-02T14:04:36.236Z,2.17
2018-09-02T14:07:04.576Z,2.10
2018-09-02T14:09:32.870Z,1.70
2018-09-02T14:12:01.156Z,1.63
2018-09-02T14:14:29.605Z,2.33
2018-09-02T14:16:57.949Z,2.33
2018-09-02T14:19:26.370Z,2.73
2018-09-02T14:21:54.677Z,2.10
2018-09-02T14:24:23.036Z,2.10
2018-09-02T14:26:52.120Z,2.20
2018-09-02T14:29:20.478Z,2.20
2018-09-02T14:31:49.828Z,2.20
2018-09-02T14:34:18.168Z,2.43
2018-09-02T14:36:52.809Z,2.63
2018-09-02T14:39:21.124Z,2.70
2018-09-02T14:41:49.506Z,3.10
2018-09-02T14:44:17.796Z,2.30
2018-09-02T14:46:46.193Z,2.70
2018-09-02T14:49:14.661Z,2.90
2018-09-02T14:51:46.137Z,2.47
2018-09-02T14:54:14.591Z,2.10
2018-09-02T14:56:43.042Z,2.33
2018-09-02T14:59:11.479Z,2.60
2018-09-02T15:01:39.830Z,2.40
2018-09-02T15:04:08.191Z,2.70
2018-09-02T15:06:36.481Z,2.90
2018-09-02T15:09:06.564Z,2.30
2018-09-02T15:11:35.025Z,2.57
2018-09-02T15:14:03.354Z,2.73
2018-09-02T15:16:31.911Z,3.13
2018-09-02T15:19:03.117Z,3.03
2018-09-02T15:21:32.466Z,2.70
2018-09-02T15:24:00.866Z,2.83
2018-09-02T15:26:29.189Z,2.13
2018-09-02T15:28:58.518Z,2.90
2018-09-02T15:31:26.955Z,2.70
2018-09-02T15:33:55.901Z,2.67
2018-09-02T15:36:24.197Z,2.40
2018-09-02T15:38:52.539Z,2.83
2018-09-02T15:41:20.926Z,3.27
2018-09-02T15:43:51.592Z,2.73
2018-09-02T15:46:20.160Z,2.77
2018-09-02T15:48:49.824Z,2.93
2018-09-02T15:51:18.227Z,2.60
2018-09-02T15:53:47.691Z,2.50
2018-09-02T15:56:16.141Z,2.67
2018-09-02T15:58:44.601Z,2.60
2018-09-02T16:01:15.139Z,2.63
2018-09-02T16:03:43.712Z,2.70
2018-09-02T16:06:12.114Z,3.50
2018-09-02T16:08:41.771Z,3.10
2018-09-02T16:11:10.145Z,2.53
2018-09-02T16:13:38.566Z,2.80
2018-09-02T16:16:07.109Z,2.73
2018-09-02T16:18:35.646Z,2.67
2018-09-02T16:21:04.255Z,2.60
2018-09-02T16:23:37.849Z,2.73
2018-09-02T16:26:06.351Z,2.50
2018-09-02T16:28:34.895Z,2.90
2018-09-02T16:31:03.761Z,2.87
2018-09-02T16:33:32.137Z,2.50
2018-09-02T16:36:00.916Z,2.63
2018-09-02T16:38:29.346Z,3.03
2018-09-02T16:41:02.168Z,3.00
2018-09-02T16:43:31.152Z,2.93
2018-09-02T16:46:00.094Z,2.80
2018-09-02T16:48:28.608Z,3.17
2018-09-02T16:50:57.170Z,3.20
2018-09-02T16:53:25.600Z,2.90
2018-09-02T16:58:35.505Z,2.73
2018-09-02T17:01:04.281Z,2.57
2018-09-02T17:03:35.494Z,2.77
2018-09-02T17:06:03.943Z,2.53
2018-09-02T17:08:32.537Z,2.73
2018-09-02T17:11:01.141Z,2.40
2018-09-02T17:13:29.804Z,2.90
2018-09-02T17:15:58.278Z,2.83
2018-09-02T17:18:26.712Z,3.10
2018-09-02T17:20:55.138Z,3.20
2018-09-02T17:23:23.643Z,2.83
2018-09-02T17:26:03.082Z,3.00
2018-09-02T17:28:31.762Z,2.93
2018-09-02T17:31:00.077Z,3.13
2018-09-02T17:33:28.340Z,3.30
2018-09-02T17:35:56.633Z,3.30
2018-09-02T17:38:25.017Z,3.20
2018-09-02T17:40:53.321Z,3.10
2018-09-02T17:43:21.713Z,3.60
2018-09-02T17:45:50.141Z,3.10
2018-09-02T17:48:18.442Z,3.10
2018-09-02T17:50:46.891Z,5.20
2018-09-02T17:53:15.236Z,3.60
2018-09-02T17:55:43.643Z,3.47
2018-09-02T17:58:11.909Z,3.10
2018-09-02T18:00:43.349Z,3.40
2018-09-02T18:03:11.678Z,3.20
2018-09-02T18:05:39.994Z,3.23
2018-09-02T18:08:08.444Z,3.00
2018-09-02T18:10:37.527Z,3.23
2018-09-02T18:13:05.985Z,3.47
2018-09-02T18:15:34.446Z,2.80
2018-09-02T18:18:02.749Z,2.80
2018-09-02T18:20:31.065Z,3.53
2018-09-02T18:22:59.913Z,3.30
2018-09-02T18:25:28.516Z,3.23
2018-09-02T18:28:00.041Z,3.50
2018-09-02T18:30:29.070Z,3.70
2018-09-02T18:32:57.372Z,2.90
2018-09-02T18:35:25.721Z,3.00
2018-09-02T18:37:54.135Z,2.93
2018-09-02T18:40:22.437Z,3.00
2018-09-02T18:42:50.988Z,2.70
2018-09-02T18:45:19.461Z,3.13
2018-09-02T18:47:48.559Z,2.93
2018-09-02T18:50:16.916Z,3.20
2018-09-02T18:52:45.273Z,3.70
2018-09-02T18:55:13.645Z,3.33
2018-09-02T18:57:41.961Z,3.40
2018-09-02T19:00:10.329Z,3.57
2018-09-02T19:02:38.747Z,3.30
2018-09-02T19:05:09.493Z,3.50
2018-09-02T19:07:37.996Z,3.27
2018-09-02T19:10:07.000Z,3.30
2018-09-02T19:12:35.938Z,3.50
2018-09-02T19:15:04.610Z,3.50
2018-09-02T19:17:33.530Z,3.27
2018-09-02T19:20:02.045Z,3.10
2018-09-02T19:22:31.390Z,3.20
2018-09-02T19:25:00.232Z,3.37
2018-09-02T19:27:29.162Z,3.57
2018-09-02T19:29:57.906Z,3.20
2018-09-02T19:32:26.421Z,3.60
2018-09-02T19:34:55.491Z,3.73
2018-09-02T19:37:24.381Z,3.13
2018-09-02T19:39:53.215Z,3.43
2018-09-02T19:42:22.350Z,3.80
2018-09-02T19:44:50.624Z,3.43
2018-09-02T19:47:18.980Z,3.50
2018-09-02T19:49:47.334Z,3.90
2018-09-02T19:52:15.634Z,3.13
2018-09-02T19:54:43.997Z,3.63
2018-09-02T19:57:12.329Z,3.90
2018-09-02T19:59:40.654Z,3.77
2018-09-02T20:02:09.203Z,3.83
2018-09-02T20:04:37.553Z,3.50
2018-09-02T20:07:05.919Z,3.80
2018-09-02T20:09:34.209Z,3.53
2018-09-02T20:12:02.543Z,3.93
2018-09-02T20:14:30.813Z,3.60
2018-09-02T20:16:59.229Z,3.90
2018-09-02T20:19:27.531Z,3.63
2018-09-02T20:21:55.825Z,3.47
2018-09-02T20:24:24.125Z,4.00
2018-09-02T20:29:29.837Z,3.43
2018-09-02T20:31:58.060Z,3.40
2018-09-02T20:34:26.240Z,3.27
2018-09-02T20:36:54.568Z,3.57
2018-09-02T20:39:22.781Z,3.20
2018-09-02T20:41:51.225Z,3.23
2018-09-02T20:44:19.437Z,3.03
2018-09-02T20:46:47.624Z,3.40
2018-09-02T20:49:15.854Z,3.67
2018-09-02T20:51:44.041Z,3.40
2018-09-02T20:54:12.666Z,2.97
2018-09-02T20:56:40.885Z,3.00
2018-09-02T20:59:09.080Z,3.07
2018-09-02T21:01:37.252Z,3.13
2018-09-02T21:04:05.447Z,3.80
2018-09-02T21:06:34.048Z,3.50
2018-09-02T21:09:02.228Z,3.47
2018-09-02T21:11:30.665Z,3.60
2018-09-02T21:13:58.830Z,3.10
2018-09-02T21:16:27.005Z,3.33
2018-09-02T21:18:55.518Z,3.63
2018-09-02T21:21:23.715Z,3.63
2018-09-02T21:23:51.967Z,3.50
2018-09-02T21:26:20.216Z,3.67
2018-09-02T21:28:48.456Z,3.60
2018-09-02T21:31:16.592Z,4.47
2018-09-02T21:33:44.768Z,3.67
2018-09-02T21:36:12.988Z,3.80
2018-09-02T21:38:41.201Z,4.00
2018-09-02T21:41:09.372Z,4.30
2018-09-02T21:43:37.571Z,4.70
2018-09-02T21:46:05.887Z,4.03
2018-09-02T21:48:34.184Z,4.87
2018-09-02T21:51:02.400Z,4.80
2018-09-02T21:53:30.652Z,4.50
2018-09-02T21:55:58.832Z,5.00
2018-09-02T21:58:27.033Z,4.60
2018-09-02T22:00:55.406Z,4.80
2018-09-02T22:03:23.577Z,4.60
2018-09-02T22:05:51.808Z,4.80
2018-09-02T22:08:19.977Z,4.60
2018-09-02T22:10:48.143Z,5.00
2018-09-02T22:13:16.461Z,4.67
2018-09-02T22:15:44.633Z,4.97
2018-09-02T22:18:12.824Z,5.07
2018-09-02T22:20:41.017Z,5.23
2018-09-02T22:23:09.380Z,5.33
2018-09-02T22:25:37.756Z,5.43
2018-09-02T22:28:05.860Z,6.07
2018-09-02T22:30:34.028Z,5.50
2018-09-02T22:33:02.357Z,5.60
2018-09-02T22:35:30.508Z,5.50
2018-09-02T22:37:58.661Z,6.00
2018-09-02T22:40:26.876Z,5.37
2018-09-02T22:42:55.190Z,5.13
2018-09-02T22:45:23.345Z,6.10
2018-09-02T22:47:51.569Z,5.80
2018-09-02T22:50:19.865Z,5.23
2018-09-02T22:52:48.014Z,5.37
2018-09-02T22:55:16.176Z,5.67
2018-09-02T22:57:44.506Z,5.60
2018-09-02T23:00:12.712Z,5.60
2018-09-02T23:02:41.120Z,5.23
2018-09-02T23:05:09.400Z,5.60
2018-09-02T23:07:37.536Z,5.57
2018-09-02T23:10:05.846Z,5.83
2018-09-02T23:12:34.005Z,5.23
2018-09-02T23:15:02.150Z,4.87
2018-09-02T23:17:30.274Z,4.67
2018-09-02T23:19:58.445Z,5.00
2018-09-02T23:22:26.585Z,4.40
2018-09-02T23:24:54.798Z,4.50
2018-09-02T23:27:22.940Z,4.80
2018-09-02T23:29:51.131Z,4.57
2018-09-02T23:32:19.252Z,4.63
2018-09-02T23:34:47.458Z,4.40
2018-09-02T23:37:15.576Z,4.90
2018-09-02T23:39:43.893Z,4.30
2018-09-02T23:42:12.064Z,4.13
2018-09-02T23:44:40.247Z,3.87
2018-09-02T23:47:08.396Z,4.10
2018-09-02T23:49:36.578Z,3.80
2018-09-02T23:52:05.193Z,3.90
2018-09-02T23:54:33.421Z,3.73
2018-09-02T23:57:01.559Z,3.43
2018-09-02T23:59:29.730Z,4.03
